Denver (DEN/KDEN)

Information

Location
Denver, CO
Local Time
07:12 / 7:12 am
GMT Time
14:12 / 2:12 pm
Gates
Unassigned
No FAA reported delays
METAR KDEN 221353Z 27005KT 10SM FEW060 SCT120 SCT200 M02/M10 A2987 RMK AO2 SLP127 T10171100
TAF KDEN 221137Z 2212/2318 24007KT P6SM FEW090 SCT110 BKN200 FM221700 30008KT P6SM FEW220 FM221900 06008KT P6SM SCT220 FM222200 15010KT P6SM FEW120 BKN200 FM230600 20012KT P6SM SCT060 OVC120 FM231500 24013KT P6SM BKN100 OVC180
  • No charts available